Aeroporto :
LOGIN :

Iscrizione | Disclaimer

   EN    FR    IT 

 










Sommario :    VFR   VFR Marginale   IFR   IFR Intensivo   IFR Molto Intensivo
Visibilità : 
Base nubi : 
>= 8 km
>= 3000ft
5 / 8 km
1000 / 3000 ft
1500m / 5 km
500 / 1000 ft
800 / 1500m
200 / 500 ft
< 800m
< 200 ft
Simboli :   Temporali  Nebbia  Neve Forte  Precipitazioni Forti  Vento > 20 kt
SIGMETs :   Varie  Temporali  Ghiacco  Turbolenza  Onda orograficha  Ceneri Vulcaniche






- Altitudine del aeroporto : 622 ft
- Codice IATA : BRS


EGGD - Bristol Int.

ULTIMO METAR :
  • 142120Z AUTO 21010KT 9999 -RA SCT017/// BKN038/// BKN046/// //////TCU 07/05 Q0987

METARs OBSOLETI :
  • 142050Z AUTO 21010KT 9999 FEW027 BKN036 07/05 Q0987
  • 142020Z AUTO 21013KT 9999 SCT031 BKN038 OVC046 07/04 Q0988
  • 141950Z AUTO 21014KT 9999 FEW011/// BKN044/// //////TCU 07/05 Q0988
  • 141920Z AUTO 22013KT 6000 -RA FEW014/// BKN020/// BKN030/// //////CB 07/05 Q0989
  • 141850Z AUTO 18013KT 9999 -RA BKN021/// //////CB 07/04 Q0989

TAF TAF EGGD
Valido dal 14 a 18 ore il 15 a 18 ore UTC


141700Z 1418/1518 22014KT 9999 FEW010 SCT030
TEMPO 1418/1518 24018G28KT 6000 SHRA BKN010
PROB30
TEMPO 1418/1518 2000 +SHRAGS BKN004 BKN020CB
PROB40
TEMPO 1500/1506 26025G40KT
ATIS : +44 1275 473 666



MetMap, La meteo Aeronautica in un colpo d'occhio ! - Copyright ORBIFLY Dicembre 2007 - Disclaimer

ORBIFLY MET'MAP TEAM :

Programmazione e sviluppo : Alexandra Zaïnal
Concezione : Baudouin d'Aumeries
Aiuto per la programmazione : Marc-Olivier Méhu
Supporto tecnico e logistico : Manuel Goepfert
Aiuto per la traduzione : Arnaldo La Scala

Contatto : metmap@orbifly.com




FONTI E CREDITI :

   NOAA